LYBE/BEG METAR and TAF weather

Enter ICAO airport designator
Station Type Date Time Source
LYBE METAR 2024/04/15 08:30 UTC NOAA

LYBE 150830Z 22007KT 190V250 CAVOK 25/07 Q1014 NOSIG


Station Type Date Time Source
LYBE Decoded METAR 2024/04/15 08:30 UTC NOAA

Beograd / Surcin, Serbia and Montenegro (LYBE) 44-49N 020-17E 99M
Apr 15, 2024 - 04:30 AM EDT / 2024.04.15 0830 UTC
Wind: from the SW (220 degrees) at 8 MPH (7 KT) (direction variable):0
Visibility: greater than 7 mile(s):0
Temperature: 77 F (25 C)
Dew Point: 44 F (7 C)
Relative Humidity: 31%
Pressure (altimeter): 29.94 in. Hg (1014 hPa)
ob: LYBE 150830Z 22007KT 190V250 CAVOK 25/07 Q1014 NOSIG
cycle: 8

Station Type Date Time Source
LYBE TAF 2024/04/15 06:21 UTC NOAA